sensor_id;sensor_type;location;lat;lon;timestamp;P1;durP1;ratioP1;P2;durP2;ratioP2
2175;SDS011;1094;49.902;10.876;2023-05-27T00:00:45;22.70;;;21.10;;
2175;SDS011;1094;49.902;10.876;2023-05-27T00:03:11;22.70;;;20.50;;
2175;SDS011;1094;49.902;10.876;2023-05-27T00:05:37;23.10;;;21.03;;
2175;SDS011;1094;49.902;10.876;2023-05-27T00:08:03;23.17;;;21.40;;
2175;SDS011;1094;49.902;10.876;2023-05-27T00:10:29;24.10;;;21.67;;
2175;SDS011;1094;49.902;10.876;2023-05-27T00:12:54;22.60;;;20.80;;
2175;SDS011;1094;49.902;10.876;2023-05-27T00:15:20;23.90;;;21.63;;
2175;SDS011;1094;49.902;10.876;2023-05-27T00:17:46;23.33;;;21.03;;
2175;SDS011;1094;49.902;10.876;2023-05-27T00:20:14;25.03;;;22.53;;
2175;SDS011;1094;49.902;10.876;2023-05-27T00:22:40;24.60;;;22.60;;
2175;SDS011;1094;49.902;10.876;2023-05-27T00:25:07;24.80;;;22.30;;
2175;SDS011;1094;49.902;10.876;2023-05-27T00:27:33;24.70;;;22.27;;
2175;SDS011;1094;49.902;10.876;2023-05-27T00:29:59;25.57;;;23.30;;
2175;SDS011;1094;49.902;10.876;2023-05-27T00:32:25;23.53;;;21.83;;
2175;SDS011;1094;49.902;10.876;2023-05-27T00:34:51;24.60;;;22.40;;
2175;SDS011;1094;49.902;10.876;2023-05-27T00:37:17;23.47;;;21.60;;
2175;SDS011;1094;49.902;10.876;2023-05-27T00:39:43;23.93;;;21.57;;
2175;SDS011;1094;49.902;10.876;2023-05-27T00:42:09;23.70;;;20.80;;
2175;SDS011;1094;49.902;10.876;2023-05-27T00:44:36;22.27;;;20.43;;
2175;SDS011;1094;49.902;10.876;2023-05-27T00:47:01;23.00;;;21.10;;
2175;SDS011;1094;49.902;10.876;2023-05-27T00:49:27;23.00;;;21.30;;
2175;SDS011;1094;49.902;10.876;2023-05-27T00:51:54;21.80;;;20.33;;
2175;SDS011;1094;49.902;10.876;2023-05-27T00:54:19;22.83;;;20.73;;
2175;SDS011;1094;49.902;10.876;2023-05-27T00:56:46;22.33;;;20.67;;
2175;SDS011;1094;49.902;10.876;2023-05-27T00:59:12;23.47;;;21.20;;
2175;SDS011;1094;49.902;10.876;2023-05-27T01:01:37;22.60;;;20.80;;
2175;SDS011;1094;49.902;10.876;2023-05-27T01:04:05;23.33;;;21.33;;
2175;SDS011;1094;49.902;10.876;2023-05-27T01:12:08;24.07;;;21.93;;
2175;SDS011;1094;49.902;10.876;2023-05-27T01:14:36;23.17;;;21.23;;
2175;SDS011;1094;49.902;10.876;2023-05-27T01:17:05;24.93;;;22.63;;
2175;SDS011;1094;49.902;10.876;2023-05-27T01:19:34;21.83;;;20.00;;
2175;SDS011;1094;49.902;10.876;2023-05-27T01:22:01;23.63;;;21.60;;
2175;SDS011;1094;49.902;10.876;2023-05-27T01:24:27;23.93;;;21.57;;
2175;SDS011;1094;49.902;10.876;2023-05-27T01:26:53;23.43;;;21.17;;
2175;SDS011;1094;49.902;10.876;2023-05-27T01:29:25;22.10;;;20.03;;
2175;SDS011;1094;49.902;10.876;2023-05-27T01:34:38;23.67;;;21.80;;
2175;SDS011;1094;49.902;10.876;2023-05-27T01:37:07;23.30;;;21.30;;
2175;SDS011;1094;49.902;10.876;2023-05-27T01:39:35;23.97;;;21.47;;
2175;SDS011;1094;49.902;10.876;2023-05-27T01:42:01;23.83;;;21.30;;
2175;SDS011;1094;49.902;10.876;2023-05-27T01:44:28;22.73;;;21.20;;
2175;SDS011;1094;49.902;10.876;2023-05-27T01:47:01;23.67;;;21.40;;
2175;SDS011;1094;49.902;10.876;2023-05-27T01:49:28;22.73;;;20.80;;
2175;SDS011;1094;49.902;10.876;2023-05-27T01:51:54;24.40;;;22.17;;
2175;SDS011;1094;49.902;10.876;2023-05-27T01:54:20;24.23;;;21.97;;
2175;SDS011;1094;49.902;10.876;2023-05-27T01:56:46;24.77;;;22.50;;
2175;SDS011;1094;49.902;10.876;2023-05-27T01:59:12;22.40;;;20.77;;
2175;SDS011;1094;49.902;10.876;2023-05-27T02:01:38;22.47;;;20.77;;
2175;SDS011;1094;49.902;10.876;2023-05-27T02:04:03;23.23;;;20.50;;
2175;SDS011;1094;49.902;10.876;2023-05-27T02:06:29;23.40;;;21.23;;
2175;SDS011;1094;49.902;10.876;2023-05-27T02:08:57;22.97;;;21.27;;
2175;SDS011;1094;49.902;10.876;2023-05-27T02:11:23;23.03;;;21.07;;
2175;SDS011;1094;49.902;10.876;2023-05-27T02:13:50;23.30;;;21.03;;
2175;SDS011;1094;49.902;10.876;2023-05-27T02:16:17;23.70;;;21.60;;
2175;SDS011;1094;49.902;10.876;2023-05-27T02:18:45;23.63;;;21.83;;
2175;SDS011;1094;49.902;10.876;2023-05-27T02:21:12;24.33;;;22.00;;
2175;SDS011;1094;49.902;10.876;2023-05-27T02:23:38;23.30;;;21.40;;
2175;SDS011;1094;49.902;10.876;2023-05-27T02:26:04;22.90;;;21.30;;
2175;SDS011;1094;49.902;10.876;2023-05-27T02:28:30;23.47;;;21.70;;
2175;SDS011;1094;49.902;10.876;2023-05-27T02:30:56;22.40;;;20.47;;
2175;SDS011;1094;49.902;10.876;2023-05-27T02:33:23;24.33;;;21.93;;
2175;SDS011;1094;49.902;10.876;2023-05-27T02:35:49;24.63;;;22.27;;
2175;SDS011;1094;49.902;10.876;2023-05-27T02:38:15;24.73;;;22.57;;
2175;SDS011;1094;49.902;10.876;2023-05-27T02:40:41;23.73;;;22.03;;
2175;SDS011;1094;49.902;10.876;2023-05-27T02:43:06;22.73;;;21.13;;
2175;SDS011;1094;49.902;10.876;2023-05-27T02:45:33;25.60;;;22.87;;
2175;SDS011;1094;49.902;10.876;2023-05-27T02:47:59;23.37;;;21.33;;
2175;SDS011;1094;49.902;10.876;2023-05-27T02:50:26;23.57;;;21.70;;
2175;SDS011;1094;49.902;10.876;2023-05-27T02:52:52;24.57;;;22.50;;
2175;SDS011;1094;49.902;10.876;2023-05-27T02:55:18;23.83;;;21.83;;
2175;SDS011;1094;49.902;10.876;2023-05-27T02:57:44;23.00;;;21.27;;
2175;SDS011;1094;49.902;10.876;2023-05-27T03:00:10;23.73;;;21.67;;
2175;SDS011;1094;49.902;10.876;2023-05-27T03:02:37;23.90;;;22.00;;
2175;SDS011;1094;49.902;10.876;2023-05-27T03:05:03;22.23;;;20.60;;
2175;SDS011;1094;49.902;10.876;2023-05-27T03:07:29;24.00;;;22.23;;
2175;SDS011;1094;49.902;10.876;2023-05-27T03:09:55;24.70;;;22.10;;
2175;SDS011;1094;49.902;10.876;2023-05-27T03:12:22;24.07;;;21.90;;
2175;SDS011;1094;49.902;10.876;2023-05-27T03:14:48;24.17;;;21.87;;
2175;SDS011;1094;49.902;10.876;2023-05-27T03:17:14;23.20;;;21.30;;
2175;SDS011;1094;49.902;10.876;2023-05-27T03:19:40;23.60;;;21.47;;
2175;SDS011;1094;49.902;10.876;2023-05-27T03:22:08;23.53;;;21.70;;
2175;SDS011;1094;49.902;10.876;2023-05-27T03:24:34;24.07;;;22.00;;
2175;SDS011;1094;49.902;10.876;2023-05-27T03:27:02;24.13;;;21.70;;
2175;SDS011;1094;49.902;10.876;2023-05-27T03:29:28;24.27;;;22.17;;
2175;SDS011;1094;49.902;10.876;2023-05-27T03:31:55;25.57;;;23.10;;
2175;SDS011;1094;49.902;10.876;2023-05-27T03:34:21;23.20;;;21.53;;
2175;SDS011;1094;49.902;10.876;2023-05-27T03:36:47;26.17;;;23.60;;
2175;SDS011;1094;49.902;10.876;2023-05-27T03:39:15;22.43;;;21.03;;
2175;SDS011;1094;49.902;10.876;2023-05-27T03:41:41;23.23;;;21.43;;
2175;SDS011;1094;49.902;10.876;2023-05-27T03:44:07;24.03;;;21.87;;
2175;SDS011;1094;49.902;10.876;2023-05-27T03:46:33;23.90;;;22.10;;
2175;SDS011;1094;49.902;10.876;2023-05-27T03:49:00;23.13;;;21.13;;
2175;SDS011;1094;49.902;10.876;2023-05-27T03:51:26;23.40;;;21.47;;
2175;SDS011;1094;49.902;10.876;2023-05-27T03:53:52;24.33;;;22.43;;
2175;SDS011;1094;49.902;10.876;2023-05-27T03:56:18;24.60;;;22.83;;
2175;SDS011;1094;49.902;10.876;2023-05-27T03:58:44;25.17;;;22.50;;
2175;SDS011;1094;49.902;10.876;2023-05-27T04:01:10;23.40;;;21.70;;
2175;SDS011;1094;49.902;10.876;2023-05-27T04:03:36;23.00;;;21.30;;
2175;SDS011;1094;49.902;10.876;2023-05-27T04:06:02;23.53;;;21.50;;
2175;SDS011;1094;49.902;10.876;2023-05-27T04:08:28;23.50;;;21.53;;
2175;SDS011;1094;49.902;10.876;2023-05-27T04:10:54;23.40;;;21.33;;
2175;SDS011;1094;49.902;10.876;2023-05-27T04:13:21;23.60;;;21.70;;
2175;SDS011;1094;49.902;10.876;2023-05-27T04:15:47;22.87;;;20.83;;
2175;SDS011;1094;49.902;10.876;2023-05-27T04:18:13;22.70;;;21.00;;
2175;SDS011;1094;49.902;10.876;2023-05-27T04:20:39;24.80;;;22.60;;
2175;SDS011;1094;49.902;10.876;2023-05-27T04:23:11;22.90;;;21.43;;
2175;SDS011;1094;49.902;10.876;2023-05-27T04:25:36;23.00;;;21.40;;
2175;SDS011;1094;49.902;10.876;2023-05-27T04:28:04;23.10;;;21.30;;
2175;SDS011;1094;49.902;10.876;2023-05-27T04:30:30;22.17;;;20.60;;
2175;SDS011;1094;49.902;10.876;2023-05-27T04:32:57;22.50;;;21.00;;
2175;SDS011;1094;49.902;10.876;2023-05-27T04:35:24;24.00;;;21.50;;
2175;SDS011;1094;49.902;10.876;2023-05-27T04:37:50;22.03;;;20.53;;
2175;SDS011;1094;49.902;10.876;2023-05-27T04:40:16;22.90;;;21.00;;
2175;SDS011;1094;49.902;10.876;2023-05-27T04:42:42;23.27;;;21.27;;
2175;SDS011;1094;49.902;10.876;2023-05-27T04:45:09;22.50;;;20.57;;
2175;SDS011;1094;49.902;10.876;2023-05-27T04:47:38;23.33;;;21.27;;
2175;SDS011;1094;49.902;10.876;2023-05-27T04:50:06;22.10;;;20.43;;
2175;SDS011;1094;49.902;10.876;2023-05-27T04:52:33;21.57;;;19.97;;
2175;SDS011;1094;49.902;10.876;2023-05-27T04:55:06;22.90;;;21.00;;
2175;SDS011;1094;49.902;10.876;2023-05-27T04:57:33;21.87;;;19.87;;
2175;SDS011;1094;49.902;10.876;2023-05-27T04:59:59;22.83;;;20.63;;
2175;SDS011;1094;49.902;10.876;2023-05-27T05:02:33;21.57;;;19.93;;
2175;SDS011;1094;49.902;10.876;2023-05-27T05:05:03;21.90;;;20.17;;
2175;SDS011;1094;49.902;10.876;2023-05-27T05:07:29;21.40;;;19.87;;
2175;SDS011;1094;49.902;10.876;2023-05-27T05:09:55;21.50;;;19.70;;
2175;SDS011;1094;49.902;10.876;2023-05-27T05:12:21;21.90;;;19.87;;
2175;SDS011;1094;49.902;10.876;2023-05-27T05:14:47;21.70;;;19.70;;
2175;SDS011;1094;49.902;10.876;2023-05-27T05:17:13;21.00;;;19.57;;
2175;SDS011;1094;49.902;10.876;2023-05-27T05:19:39;21.37;;;19.57;;
2175;SDS011;1094;49.902;10.876;2023-05-27T05:22:05;20.97;;;19.17;;
2175;SDS011;1094;49.902;10.876;2023-05-27T05:24:31;20.77;;;19.03;;
2175;SDS011;1094;49.902;10.876;2023-05-27T05:26:57;20.63;;;19.07;;
2175;SDS011;1094;49.902;10.876;2023-05-27T05:29:22;21.60;;;19.90;;
2175;SDS011;1094;49.902;10.876;2023-05-27T05:31:48;22.33;;;20.43;;
2175;SDS011;1094;49.902;10.876;2023-05-27T05:34:14;21.17;;;19.40;;
2175;SDS011;1094;49.902;10.876;2023-05-27T05:36:40;21.13;;;19.40;;
2175;SDS011;1094;49.902;10.876;2023-05-27T05:39:07;21.20;;;19.37;;
2175;SDS011;1094;49.902;10.876;2023-05-27T05:41:33;20.73;;;18.90;;
2175;SDS011;1094;49.902;10.876;2023-05-27T05:43:59;21.07;;;19.57;;
2175;SDS011;1094;49.902;10.876;2023-05-27T05:46:25;22.17;;;19.97;;
2175;SDS011;1094;49.902;10.876;2023-05-27T05:48:51;20.90;;;19.10;;
2175;SDS011;1094;49.902;10.876;2023-05-27T05:51:18;22.03;;;20.03;;
2175;SDS011;1094;49.902;10.876;2023-05-27T05:53:44;21.00;;;19.40;;
2175;SDS011;1094;49.902;10.876;2023-05-27T05:56:10;22.13;;;20.33;;
2175;SDS011;1094;49.902;10.876;2023-05-27T05:58:36;22.60;;;20.50;;
2175;SDS011;1094;49.902;10.876;2023-05-27T06:01:02;22.70;;;19.73;;
2175;SDS011;1094;49.902;10.876;2023-05-27T06:03:29;20.90;;;19.47;;
2175;SDS011;1094;49.902;10.876;2023-05-27T06:05:55;21.43;;;19.50;;
2175;SDS011;1094;49.902;10.876;2023-05-27T06:08:21;22.57;;;20.30;;
2175;SDS011;1094;49.902;10.876;2023-05-27T06:10:47;20.60;;;19.10;;
2175;SDS011;1094;49.902;10.876;2023-05-27T06:13:13;20.63;;;18.93;;
2175;SDS011;1094;49.902;10.876;2023-05-27T06:15:39;20.93;;;19.13;;
2175;SDS011;1094;49.902;10.876;2023-05-27T06:18:05;19.63;;;18.23;;
2175;SDS011;1094;49.902;10.876;2023-05-27T06:20:31;19.03;;;17.73;;
2175;SDS011;1094;49.902;10.876;2023-05-27T06:22:56;19.70;;;18.17;;
2175;SDS011;1094;49.902;10.876;2023-05-27T06:25:22;19.57;;;18.17;;
2175;SDS011;1094;49.902;10.876;2023-05-27T06:27:48;20.53;;;18.67;;
2175;SDS011;1094;49.902;10.876;2023-05-27T06:30:14;19.93;;;18.43;;
2175;SDS011;1094;49.902;10.876;2023-05-27T06:32:40;19.87;;;18.40;;
2175;SDS011;1094;49.902;10.876;2023-05-27T06:35:06;19.87;;;18.33;;
2175;SDS011;1094;49.902;10.876;2023-05-27T06:37:32;19.80;;;18.30;;
2175;SDS011;1094;49.902;10.876;2023-05-27T06:39:58;19.87;;;18.03;;
2175;SDS011;1094;49.902;10.876;2023-05-27T06:42:24;24.83;;;19.73;;
2175;SDS011;1094;49.902;10.876;2023-05-27T06:44:50;20.83;;;19.13;;
2175;SDS011;1094;49.902;10.876;2023-05-27T06:47:16;19.20;;;17.67;;
2175;SDS011;1094;49.902;10.876;2023-05-27T06:49:42;19.50;;;18.10;;
2175;SDS011;1094;49.902;10.876;2023-05-27T06:52:08;19.83;;;18.10;;
2175;SDS011;1094;49.902;10.876;2023-05-27T06:54:35;19.07;;;17.80;;
2175;SDS011;1094;49.902;10.876;2023-05-27T06:57:01;19.73;;;18.27;;
2175;SDS011;1094;49.902;10.876;2023-05-27T06:59:27;19.50;;;18.13;;
2175;SDS011;1094;49.902;10.876;2023-05-27T07:01:53;18.60;;;17.30;;
2175;SDS011;1094;49.902;10.876;2023-05-27T07:04:21;19.00;;;17.70;;
2175;SDS011;1094;49.902;10.876;2023-05-27T07:06:47;18.67;;;17.47;;
2175;SDS011;1094;49.902;10.876;2023-05-27T07:09:13;19.93;;;18.13;;
2175;SDS011;1094;49.902;10.876;2023-05-27T07:11:40;19.77;;;18.17;;
2175;SDS011;1094;49.902;10.876;2023-05-27T07:14:06;19.37;;;17.87;;
2175;SDS011;1094;49.902;10.876;2023-05-27T07:16:34;19.27;;;17.87;;
2175;SDS011;1094;49.902;10.876;2023-05-27T07:19:00;19.30;;;17.90;;
2175;SDS011;1094;49.902;10.876;2023-05-27T07:21:26;19.57;;;18.07;;
2175;SDS011;1094;49.902;10.876;2023-05-27T07:23:52;19.53;;;17.80;;
2175;SDS011;1094;49.902;10.876;2023-05-27T07:26:18;19.20;;;17.73;;
2175;SDS011;1094;49.902;10.876;2023-05-27T07:28:45;19.67;;;17.80;;
2175;SDS011;1094;49.902;10.876;2023-05-27T07:31:11;18.63;;;17.27;;
2175;SDS011;1094;49.902;10.876;2023-05-27T07:33:37;18.70;;;17.23;;
2175;SDS011;1094;49.902;10.876;2023-05-27T07:36:03;19.43;;;17.80;;
2175;SDS011;1094;49.902;10.876;2023-05-27T07:38:29;18.77;;;17.33;;
2175;SDS011;1094;49.902;10.876;2023-05-27T07:40:55;18.67;;;17.13;;
2175;SDS011;1094;49.902;10.876;2023-05-27T07:43:21;17.70;;;16.60;;
2175;SDS011;1094;49.902;10.876;2023-05-27T07:45:47;18.37;;;16.97;;
2175;SDS011;1094;49.902;10.876;2023-05-27T07:48:13;18.07;;;16.73;;
2175;SDS011;1094;49.902;10.876;2023-05-27T07:50:39;18.23;;;16.93;;
2175;SDS011;1094;49.902;10.876;2023-05-27T07:53:05;18.30;;;16.87;;
2175;SDS011;1094;49.902;10.876;2023-05-27T07:55:31;19.20;;;17.80;;
2175;SDS011;1094;49.902;10.876;2023-05-27T07:57:57;19.20;;;17.60;;
2175;SDS011;1094;49.902;10.876;2023-05-27T08:00:23;18.27;;;16.97;;
2175;SDS011;1094;49.902;10.876;2023-05-27T08:02:49;18.80;;;17.30;;
2175;SDS011;1094;49.902;10.876;2023-05-27T08:05:15;18.80;;;17.27;;
2175;SDS011;1094;49.902;10.876;2023-05-27T08:07:41;19.20;;;17.70;;
2175;SDS011;1094;49.902;10.876;2023-05-27T08:10:07;19.40;;;18.00;;
2175;SDS011;1094;49.902;10.876;2023-05-27T08:12:33;19.17;;;17.67;;
2175;SDS011;1094;49.902;10.876;2023-05-27T08:14:59;19.10;;;17.60;;
2175;SDS011;1094;49.902;10.876;2023-05-27T08:17:25;18.53;;;17.03;;
2175;SDS011;1094;49.902;10.876;2023-05-27T08:19:51;18.33;;;17.13;;
2175;SDS011;1094;49.902;10.876;2023-05-27T08:22:17;18.03;;;16.83;;
2175;SDS011;1094;49.902;10.876;2023-05-27T08:24:43;18.97;;;17.50;;
2175;SDS011;1094;49.902;10.876;2023-05-27T08:27:13;19.17;;;17.77;;
2175;SDS011;1094;49.902;10.876;2023-05-27T08:29:43;18.90;;;17.50;;
2175;SDS011;1094;49.902;10.876;2023-05-27T08:32:09;20.40;;;18.43;;
2175;SDS011;1094;49.902;10.876;2023-05-27T08:34:35;18.97;;;17.67;;
2175;SDS011;1094;49.902;10.876;2023-05-27T08:37:01;18.97;;;17.67;;
2175;SDS011;1094;49.902;10.876;2023-05-27T08:39:28;19.00;;;17.50;;
2175;SDS011;1094;49.902;10.876;2023-05-27T08:41:55;20.37;;;18.53;;
2175;SDS011;1094;49.902;10.876;2023-05-27T08:44:23;19.83;;;17.93;;
2175;SDS011;1094;49.902;10.876;2023-05-27T08:46:50;19.40;;;17.80;;
2175;SDS011;1094;49.902;10.876;2023-05-27T08:49:16;19.60;;;17.90;;
2175;SDS011;1094;49.902;10.876;2023-05-27T08:51:42;19.33;;;17.83;;
2175;SDS011;1094;49.902;10.876;2023-05-27T08:54:10;19.57;;;18.07;;
2175;SDS011;1094;49.902;10.876;2023-05-27T08:56:37;18.87;;;17.37;;
2175;SDS011;1094;49.902;10.876;2023-05-27T08:59:03;19.07;;;17.83;;
2175;SDS011;1094;49.902;10.876;2023-05-27T09:01:29;19.13;;;17.40;;
2175;SDS011;1094;49.902;10.876;2023-05-27T09:03:55;18.30;;;17.03;;
2175;SDS011;1094;49.902;10.876;2023-05-27T09:06:21;18.97;;;17.57;;
2175;SDS011;1094;49.902;10.876;2023-05-27T09:08:47;18.93;;;17.53;;
2175;SDS011;1094;49.902;10.876;2023-05-27T09:11:23;18.90;;;17.40;;
2175;SDS011;1094;49.902;10.876;2023-05-27T09:13:50;19.50;;;17.70;;
2175;SDS011;1094;49.902;10.876;2023-05-27T09:16:20;18.50;;;17.30;;
2175;SDS011;1094;49.902;10.876;2023-05-27T09:18:46;20.53;;;18.03;;
2175;SDS011;1094;49.902;10.876;2023-05-27T09:21:12;18.87;;;17.63;;
2175;SDS011;1094;49.902;10.876;2023-05-27T09:23:38;18.90;;;17.53;;
2175;SDS011;1094;49.902;10.876;2023-05-27T09:26:11;19.73;;;18.20;;
2175;SDS011;1094;49.902;10.876;2023-05-27T09:28:38;19.37;;;17.80;;
2175;SDS011;1094;49.902;10.876;2023-05-27T09:31:05;19.60;;;17.63;;
2175;SDS011;1094;49.902;10.876;2023-05-27T09:33:32;20.43;;;18.30;;
2175;SDS011;1094;49.902;10.876;2023-05-27T09:35:59;19.80;;;18.30;;
2175;SDS011;1094;49.902;10.876;2023-05-27T09:38:28;18.33;;;17.03;;
2175;SDS011;1094;49.902;10.876;2023-05-27T09:40:54;18.43;;;17.13;;
2175;SDS011;1094;49.902;10.876;2023-05-27T09:43:20;18.63;;;17.33;;
2175;SDS011;1094;49.902;10.876;2023-05-27T09:45:46;18.50;;;17.17;;
2175;SDS011;1094;49.902;10.876;2023-05-27T09:48:12;18.70;;;17.10;;
2175;SDS011;1094;49.902;10.876;2023-05-27T09:50:39;18.13;;;16.83;;
2175;SDS011;1094;49.902;10.876;2023-05-27T09:53:06;17.63;;;16.40;;
2175;SDS011;1094;49.902;10.876;2023-05-27T09:55:32;18.70;;;17.30;;
2175;SDS011;1094;49.902;10.876;2023-05-27T09:57:58;17.87;;;16.67;;
2175;SDS011;1094;49.902;10.876;2023-05-27T10:00:25;18.07;;;16.77;;
2175;SDS011;1094;49.902;10.876;2023-05-27T10:02:52;18.93;;;17.43;;
2175;SDS011;1094;49.902;10.876;2023-05-27T10:05:18;18.53;;;17.13;;
2175;SDS011;1094;49.902;10.876;2023-05-27T10:07:47;18.60;;;17.20;;
2175;SDS011;1094;49.902;10.876;2023-05-27T10:10:19;17.37;;;16.07;;
2175;SDS011;1094;49.902;10.876;2023-05-27T10:12:46;16.73;;;15.67;;
2175;SDS011;1094;49.902;10.876;2023-05-27T10:15:31;17.43;;;15.80;;
2175;SDS011;1094;49.902;10.876;2023-05-27T10:17:58;16.35;;;15.32;;
2175;SDS011;1094;49.902;10.876;2023-05-27T10:22:51;16.25;;;15.20;;
2175;SDS011;1094;49.902;10.876;2023-05-27T10:25:17;17.08;;;15.75;;
2175;SDS011;1094;49.902;10.876;2023-05-27T10:27:46;17.25;;;15.80;;
2175;SDS011;1094;49.902;10.876;2023-05-27T10:30:13;17.08;;;15.50;;
2175;SDS011;1094;49.902;10.876;2023-05-27T10:32:49;16.80;;;15.55;;
2175;SDS011;1094;49.902;10.876;2023-05-27T10:35:16;17.15;;;15.93;;
2175;SDS011;1094;49.902;10.876;2023-05-27T10:37:42;16.65;;;15.45;;
2175;SDS011;1094;49.902;10.876;2023-05-27T10:40:09;16.15;;;15.13;;
2175;SDS011;1094;49.902;10.876;2023-05-27T10:42:35;16.90;;;15.20;;
2175;SDS011;1094;49.902;10.876;2023-05-27T10:45:08;16.45;;;15.32;;
2175;SDS011;1094;49.902;10.876;2023-05-27T10:47:36;17.33;;;16.05;;
2175;SDS011;1094;49.902;10.876;2023-05-27T10:50:11;17.25;;;15.85;;
2175;SDS011;1094;49.902;10.876;2023-05-27T10:52:38;16.88;;;15.57;;
2175;SDS011;1094;49.902;10.876;2023-05-27T10:55:04;16.50;;;15.20;;
2175;SDS011;1094;49.902;10.876;2023-05-27T10:57:34;16.15;;;14.95;;
2175;SDS011;1094;49.902;10.876;2023-05-27T11:00:01;17.13;;;15.75;;
2175;SDS011;1094;49.902;10.876;2023-05-27T11:02:29;16.95;;;15.45;;
2175;SDS011;1094;49.902;10.876;2023-05-27T11:05:07;16.50;;;15.30;;
2175;SDS011;1094;49.902;10.876;2023-05-27T11:07:33;16.13;;;15.15;;
2175;SDS011;1094;49.902;10.876;2023-05-27T11:10:01;16.33;;;15.40;;
2175;SDS011;1094;49.902;10.876;2023-05-27T11:12:29;16.35;;;15.30;;
2175;SDS011;1094;49.902;10.876;2023-05-27T11:14:56;16.95;;;15.55;;
2175;SDS011;1094;49.902;10.876;2023-05-27T11:17:22;17.50;;;16.27;;
2175;SDS011;1094;49.902;10.876;2023-05-27T11:19:48;16.90;;;15.65;;
2175;SDS011;1094;49.902;10.876;2023-05-27T11:22:15;17.08;;;15.95;;
2175;SDS011;1094;49.902;10.876;2023-05-27T11:24:41;16.95;;;15.75;;
2175;SDS011;1094;49.902;10.876;2023-05-27T11:27:11;17.27;;;16.07;;
2175;SDS011;1094;49.902;10.876;2023-05-27T11:29:37;16.97;;;15.80;;
2175;SDS011;1094;49.902;10.876;2023-05-27T11:32:06;16.97;;;15.67;;
2175;SDS011;1094;49.902;10.876;2023-05-27T11:34:35;16.37;;;15.20;;
2175;SDS011;1094;49.902;10.876;2023-05-27T11:37:02;16.80;;;15.65;;
2175;SDS011;1094;49.902;10.876;2023-05-27T11:39:31;16.40;;;15.27;;
2175;SDS011;1094;49.902;10.876;2023-05-27T11:41:57;18.00;;;16.50;;
2175;SDS011;1094;49.902;10.876;2023-05-27T11:44:24;16.35;;;15.10;;
2175;SDS011;1094;49.902;10.876;2023-05-27T11:46:51;16.40;;;15.18;;
2175;SDS011;1094;49.902;10.876;2023-05-27T11:49:18;16.70;;;15.63;;
2175;SDS011;1094;49.902;10.876;2023-05-27T11:51:45;17.02;;;15.88;;
2175;SDS011;1094;49.902;10.876;2023-05-27T11:54:16;17.00;;;15.70;;
2175;SDS011;1094;49.902;10.876;2023-05-27T11:56:43;16.40;;;15.40;;
2175;SDS011;1094;49.902;10.876;2023-05-27T11:59:09;17.57;;;16.40;;
2175;SDS011;1094;49.902;10.876;2023-05-27T12:01:34;18.07;;;16.50;;
2175;SDS011;1094;49.902;10.876;2023-05-27T12:04:00;17.37;;;16.23;;
2175;SDS011;1094;49.902;10.876;2023-05-27T12:06:26;18.53;;;16.60;;
2175;SDS011;1094;49.902;10.876;2023-05-27T12:08:52;18.23;;;16.90;;
2175;SDS011;1094;49.902;10.876;2023-05-27T12:11:18;17.87;;;16.40;;
2175;SDS011;1094;49.902;10.876;2023-05-27T12:13:45;17.60;;;16.40;;
2175;SDS011;1094;49.902;10.876;2023-05-27T12:16:11;17.10;;;16.00;;
2175;SDS011;1094;49.902;10.876;2023-05-27T12:18:37;17.33;;;16.23;;
2175;SDS011;1094;49.902;10.876;2023-05-27T12:21:03;17.23;;;16.03;;
2175;SDS011;1094;49.902;10.876;2023-05-27T12:23:29;18.10;;;16.60;;
2175;SDS011;1094;49.902;10.876;2023-05-27T12:25:55;18.73;;;17.23;;
2175;SDS011;1094;49.902;10.876;2023-05-27T12:28:21;18.07;;;16.70;;
2175;SDS011;1094;49.902;10.876;2023-05-27T12:30:47;17.23;;;16.07;;
2175;SDS011;1094;49.902;10.876;2023-05-27T12:33:13;17.87;;;16.70;;
2175;SDS011;1094;49.902;10.876;2023-05-27T12:35:39;18.70;;;17.10;;
2175;SDS011;1094;49.902;10.876;2023-05-27T12:38:06;18.37;;;16.97;;
2175;SDS011;1094;49.902;10.876;2023-05-27T12:40:32;19.00;;;17.60;;
2175;SDS011;1094;49.902;10.876;2023-05-27T12:42:58;18.43;;;17.27;;
2175;SDS011;1094;49.902;10.876;2023-05-27T12:45:24;19.33;;;17.93;;
2175;SDS011;1094;49.902;10.876;2023-05-27T12:47:51;19.03;;;17.80;;
2175;SDS011;1094;49.902;10.876;2023-05-27T12:50:17;19.33;;;18.13;;
2175;SDS011;1094;49.902;10.876;2023-05-27T12:52:44;19.63;;;18.23;;
2175;SDS011;1094;49.902;10.876;2023-05-27T12:55:14;19.20;;;17.97;;
2175;SDS011;1094;49.902;10.876;2023-05-27T12:57:42;19.53;;;18.00;;
2175;SDS011;1094;49.902;10.876;2023-05-27T13:00:08;21.10;;;19.43;;
2175;SDS011;1094;49.902;10.876;2023-05-27T13:02:35;20.17;;;18.70;;
2175;SDS011;1094;49.902;10.876;2023-05-27T13:05:02;19.83;;;18.40;;
2175;SDS011;1094;49.902;10.876;2023-05-27T13:07:28;19.00;;;17.80;;
2175;SDS011;1094;49.902;10.876;2023-05-27T13:09:54;20.73;;;19.13;;
2175;SDS011;1094;49.902;10.876;2023-05-27T13:12:21;19.90;;;18.50;;
2175;SDS011;1094;49.902;10.876;2023-05-27T13:14:47;20.53;;;18.73;;
2175;SDS011;1094;49.902;10.876;2023-05-27T13:17:13;20.60;;;19.10;;
2175;SDS011;1094;49.902;10.876;2023-05-27T13:19:39;20.80;;;19.10;;
2175;SDS011;1094;49.902;10.876;2023-05-27T13:22:05;20.70;;;19.00;;
2175;SDS011;1094;49.902;10.876;2023-05-27T13:24:31;19.63;;;18.13;;
2175;SDS011;1094;49.902;10.876;2023-05-27T13:26:57;21.03;;;19.30;;
2175;SDS011;1094;49.902;10.876;2023-05-27T13:29:23;20.27;;;18.60;;
2175;SDS011;1094;49.902;10.876;2023-05-27T13:31:49;19.83;;;18.30;;
2175;SDS011;1094;49.902;10.876;2023-05-27T13:34:15;19.43;;;18.13;;
2175;SDS011;1094;49.902;10.876;2023-05-27T13:36:42;20.00;;;18.50;;
2175;SDS011;1094;49.902;10.876;2023-05-27T13:39:08;20.00;;;18.40;;
2175;SDS011;1094;49.902;10.876;2023-05-27T13:41:34;20.27;;;18.60;;
2175;SDS011;1094;49.902;10.876;2023-05-27T13:44:00;20.47;;;19.10;;
2175;SDS011;1094;49.902;10.876;2023-05-27T13:46:26;19.53;;;18.33;;
2175;SDS011;1094;49.902;10.876;2023-05-27T13:48:52;19.90;;;18.47;;
2175;SDS011;1094;49.902;10.876;2023-05-27T13:51:18;20.47;;;19.07;;
2175;SDS011;1094;49.902;10.876;2023-05-27T13:53:44;20.03;;;18.67;;
2175;SDS011;1094;49.902;10.876;2023-05-27T13:56:10;20.63;;;18.83;;
2175;SDS011;1094;49.902;10.876;2023-05-27T13:58:36;21.27;;;19.30;;
2175;SDS011;1094;49.902;10.876;2023-05-27T14:01:02;21.20;;;19.53;;
2175;SDS011;1094;49.902;10.876;2023-05-27T14:03:28;21.07;;;19.50;;
2175;SDS011;1094;49.902;10.876;2023-05-27T14:05:54;19.90;;;18.60;;
2175;SDS011;1094;49.902;10.876;2023-05-27T14:08:21;20.30;;;18.93;;
2175;SDS011;1094;49.902;10.876;2023-05-27T14:10:47;20.37;;;18.90;;
2175;SDS011;1094;49.902;10.876;2023-05-27T14:13:13;19.93;;;18.50;;
2175;SDS011;1094;49.902;10.876;2023-05-27T14:15:39;20.00;;;18.70;;
2175;SDS011;1094;49.902;10.876;2023-05-27T14:18:05;19.60;;;18.40;;
2175;SDS011;1094;49.902;10.876;2023-05-27T14:20:31;19.73;;;18.30;;
2175;SDS011;1094;49.902;10.876;2023-05-27T14:22:57;20.40;;;18.60;;
2175;SDS011;1094;49.902;10.876;2023-05-27T14:25:28;20.40;;;18.70;;
2175;SDS011;1094;49.902;10.876;2023-05-27T14:27:54;19.60;;;18.50;;
2175;SDS011;1094;49.902;10.876;2023-05-27T14:30:22;19.80;;;18.30;;
2175;SDS011;1094;49.902;10.876;2023-05-27T14:32:49;20.30;;;18.80;;
2175;SDS011;1094;49.902;10.876;2023-05-27T14:35:15;20.97;;;19.20;;
2175;SDS011;1094;49.902;10.876;2023-05-27T14:37:41;19.73;;;18.13;;
2175;SDS011;1094;49.902;10.876;2023-05-27T14:40:07;19.90;;;18.30;;